Time;durP1;ratioP1;P1;durP2;ratioP2;P2;SDS_P1;SDS_P2;PMS_P1;PMS_P2;Temp;Humidity;BMP_temperature;BMP_pressure;BME280_temperature;BME280_humidity;BME280_pressure;Samples;Min_cycle;Max_cycle;Signal;HPM_P1;HPM_P2
2021/11/13 00:02:18;;;;;;;23.00;11.33;;;4.70;99.90;;;;;;5032424;28;20458;-48
2021/11/13 00:04:45;;;;;;;24.27;10.83;;;4.80;99.90;;;;;;5035815;28;20448;-48
2021/11/13 00:07:12;;;;;;;23.80;11.83;;;4.80;99.90;;;;;;5048656;28;20483;-49
2021/11/13 00:09:41;;;;;;;18.47;10.10;;;4.70;99.90;;;;;;5050698;28;20510;-48
2021/11/13 00:12:09;;;;;;;24.13;10.63;;;4.70;99.90;;;;;;5050949;28;20525;-49
2021/11/13 00:14:37;;;;;;;21.57;10.43;;;4.70;99.90;;;;;;5050540;28;20517;-49
2021/11/13 00:17:04;;;;;;;20.13;9.77;;;4.60;99.90;;;;;;5051985;28;20447;-49
2021/11/13 00:19:31;;;;;;;21.40;10.30;;;4.60;99.90;;;;;;5055080;28;20447;-49
2021/11/13 00:21:59;;;;;;;23.97;9.57;;;4.70;99.90;;;;;;5054348;28;20447;-48
2021/11/13 00:24:26;;;;;;;21.40;9.87;;;4.60;99.90;;;;;;5054685;28;20846;-48
2021/11/13 00:26:54;;;;;;;36.57;10.40;;;4.50;99.90;;;;;;5054898;28;20487;-48
2021/11/13 00:29:21;;;;;;;26.13;10.30;;;4.40;99.90;;;;;;5065357;28;20495;-48
2021/11/13 00:31:49;;;;;;;18.30;9.80;;;4.20;99.90;;;;;;5048551;28;20459;-49
2021/11/13 00:34:16;;;;;;;21.47;9.37;;;4.20;99.90;;;;;;5054905;28;20458;-49
2021/11/13 00:36:43;;;;;;;26.00;8.80;;;4.30;99.90;;;;;;5053837;28;20966;-49
2021/11/13 00:39:11;;;;;;;21.80;8.77;;;4.20;99.90;;;;;;5054664;28;20987;-49
2021/11/13 00:41:38;;;;;;;23.17;10.60;;;4.10;99.90;;;;;;5054143;28;20493;-47
2021/11/13 00:44:07;;;;;;;20.27;9.47;;;4.00;99.90;;;;;;5054764;28;20455;-48
2021/11/13 00:46:35;;;;;;;20.80;9.20;;;4.10;99.90;;;;;;5054476;28;20476;-47
2021/11/13 00:49:02;;;;;;;19.93;10.00;;;4.10;99.90;;;;;;5054535;28;20452;-48
2021/11/13 00:51:28;;;;;;;23.87;10.40;;;4.20;99.90;;;;;;5053777;28;20870;-48
2021/11/13 00:53:55;;;;;;;22.10;10.93;;;4.10;99.90;;;;;;5054003;28;20443;-48
2021/11/13 00:56:23;;;;;;;21.97;11.47;;;4.20;99.90;;;;;;5053957;28;20471;-48
2021/11/13 00:58:50;;;;;;;31.93;10.90;;;4.10;99.90;;;;;;5053869;28;20447;-49
2021/11/13 01:01:18;;;;;;;22.03;10.30;;;4.20;99.90;;;;;;5052311;28;20880;-49
2021/11/13 01:03:46;;;;;;;20.57;9.93;;;4.40;99.90;;;;;;5047854;28;20491;-49
2021/11/13 01:06:13;;;;;;;17.93;9.40;;;4.30;99.90;;;;;;5053389;28;20519;-48
2021/11/13 01:08:40;;;;;;;21.60;9.77;;;4.30;99.90;;;;;;5048136;28;20483;-47
2021/11/13 01:11:08;;;;;;;19.70;9.23;;;4.20;99.90;;;;;;5049529;28;20897;-48
2021/11/13 01:13:35;;;;;;;24.40;10.07;;;4.10;99.90;;;;;;5052672;28;20462;-48
2021/11/13 01:16:02;;;;;;;31.93;10.13;;;4.00;99.90;;;;;;5053182;28;20525;-48
2021/11/13 01:18:30;;;;;;;18.50;10.37;;;3.90;99.90;;;;;;5053407;28;20524;-48
2021/11/13 01:20:57;;;;;;;28.67;10.50;;;3.90;99.90;;;;;;5053835;28;20459;-48
2021/11/13 01:23:24;;;;;;;21.20;10.40;;;3.90;99.90;;;;;;5052280;28;20834;-49
2021/11/13 01:25:52;;;;;;;28.80;10.57;;;3.90;99.90;;;;;;5053018;28;20981;-49
2021/11/13 01:28:19;;;;;;;30.63;9.73;;;3.90;99.90;;;;;;5052336;28;20993;-51
2021/11/13 01:30:46;;;;;;;20.20;9.47;;;3.80;99.90;;;;;;5053177;28;20447;-48
2021/11/13 01:33:14;;;;;;;20.20;10.13;;;3.80;99.90;;;;;;5053586;28;20455;-49
2021/11/13 01:35:42;;;;;;;40.33;11.50;;;3.70;99.90;;;;;;5053163;28;20467;-47
2021/11/13 01:38:09;;;;;;;23.40;9.53;;;3.60;99.90;;;;;;5052141;28;20444;-48
2021/11/13 01:40:37;;;;;;;20.63;10.20;;;3.60;99.90;;;;;;5053233;28;20463;-47
2021/11/13 01:43:04;;;;;;;25.37;10.63;;;3.70;99.90;;;;;;5052818;28;20512;-50
2021/11/13 01:45:31;;;;;;;29.03;10.10;;;3.70;99.90;;;;;;5052065;28;20891;-48
2021/11/13 01:47:58;;;;;;;23.57;9.97;;;3.70;99.90;;;;;;5053337;28;21078;-48
2021/11/13 01:50:28;;;;;;;21.53;8.97;;;3.80;99.90;;;;;;5053002;28;20455;-48
2021/11/13 01:52:57;;;;;;;21.97;8.87;;;3.60;99.90;;;;;;5053493;28;20514;-48
2021/11/13 01:55:27;;;;;;;29.93;11.10;;;3.60;99.90;;;;;;5053328;28;20482;-48
2021/11/13 01:57:56;;;;;;;32.07;9.40;;;3.50;99.90;;;;;;5053392;28;20981;-49
2021/11/13 02:00:27;;;;;;;18.90;9.30;;;3.50;99.90;;;;;;5053238;28;20470;-48
2021/11/13 02:02:54;;;;;;;17.43;9.37;;;3.60;99.90;;;;;;5052824;28;20467;-49
2021/11/13 02:05:22;;;;;;;19.67;9.60;;;3.60;99.90;;;;;;5078486;22;20479;-54
2021/11/13 02:07:49;;;;;;;23.40;10.30;;;3.60;99.90;;;;;;5070124;28;20494;-55
2021/11/13 02:10:18;;;;;;;25.90;10.63;;;3.60;99.90;;;;;;5073313;28;20864;-54
2021/11/13 02:12:45;;;;;;;19.57;9.90;;;3.60;99.90;;;;;;5073403;28;20443;-54
2021/11/13 02:15:13;;;;;;;25.30;9.93;;;3.70;99.90;;;;;;5072393;28;20447;-53
2021/11/13 02:17:41;;;;;;;20.47;9.93;;;3.70;99.90;;;;;;5067648;28;20463;-54
2021/11/13 02:20:29;;;;;;;21.33;10.83;;;3.60;99.90;;;;;;5067341;28;20517;-54
2021/11/13 02:22:59;;;;;;;27.20;10.50;;;3.60;99.90;;;;;;5072856;28;20508;-54
2021/11/13 02:25:30;;;;;;;18.87;9.20;;;3.70;99.90;;;;;;5073156;28;20443;-54
2021/11/13 02:27:58;;;;;;;23.30;10.00;;;3.60;99.90;;;;;;5072544;28;20474;-53
2021/11/13 02:30:26;;;;;;;23.83;10.40;;;3.60;99.90;;;;;;5066078;28;20447;-54
2021/11/13 02:32:54;;;;;;;16.37;9.03;;;3.60;99.90;;;;;;5072909;28;20948;-54
2021/11/13 02:35:24;;;;;;;20.23;9.93;;;3.70;99.90;;;;;;5072494;28;20478;-55
2021/11/13 02:37:53;;;;;;;28.20;11.10;;;3.80;99.90;;;;;;5071783;28;20503;-54
2021/11/13 02:40:20;;;;;;;21.87;9.93;;;3.70;99.90;;;;;;5071793;28;20932;-54
2021/11/13 02:42:48;;;;;;;35.27;11.40;;;3.80;99.90;;;;;;5072462;28;20450;-55
2021/11/13 02:45:16;;;;;;;21.93;10.17;;;3.80;99.90;;;;;;5072937;28;20458;-54
2021/11/13 02:47:47;;;;;;;13.27;8.80;;;3.90;99.90;;;;;;5071857;28;20478;-54
2021/11/13 02:50:17;;;;;;;22.90;9.63;;;3.90;99.90;;;;;;5072065;28;20542;-54
2021/11/13 02:52:46;;;;;;;24.53;9.50;;;3.90;99.90;;;;;;5071950;28;20450;-55
2021/11/13 02:55:15;;;;;;;23.27;10.70;;;3.90;99.90;;;;;;5072551;28;20511;-54
2021/11/13 02:57:42;;;;;;;17.80;8.70;;;3.90;99.90;;;;;;5072147;28;20475;-55
2021/11/13 03:00:13;;;;;;;19.17;10.70;;;4.00;99.90;;;;;;5072286;28;20447;-54
2021/11/13 03:02:44;;;;;;;17.20;9.27;;;3.90;99.90;;;;;;5071739;28;20451;-54
2021/11/13 03:05:22;;;;;;;19.00;9.80;;;4.00;99.90;;;;;;5071632;28;20494;-54
2021/11/13 03:07:50;;;;;;;14.50;8.73;;;4.00;99.90;;;;;;5071541;28;20483;-54
2021/11/13 03:10:19;;;;;;;24.27;9.53;;;4.00;99.90;;;;;;5071684;28;20542;-54
2021/11/13 03:12:47;;;;;;;13.60;8.40;;;4.10;99.90;;;;;;5072348;28;20447;-54
2021/11/13 03:15:17;;;;;;;25.87;9.30;;;4.10;99.90;;;;;;5072074;28;20810;-54
2021/11/13 03:17:44;;;;;;;15.27;8.37;;;4.10;99.90;;;;;;5071587;28;20459;-53
2021/11/13 03:20:14;;;;;;;21.00;9.87;;;4.10;99.90;;;;;;5071874;28;20446;-56
2021/11/13 03:22:42;;;;;;;28.03;10.00;;;4.00;99.90;;;;;;5071170;28;20443;-55
2021/11/13 03:25:11;;;;;;;20.37;10.40;;;3.90;99.90;;;;;;5062773;28;20452;-54
2021/11/13 03:27:44;;;;;;;25.57;10.93;;;3.80;99.90;;;;;;5068194;28;20482;-55
2021/11/13 03:30:12;;;;;;;25.23;10.20;;;3.90;99.90;;;;;;5071952;28;20543;-55
2021/11/13 03:32:39;;;;;;;21.30;9.80;;;4.00;99.90;;;;;;5071255;28;20526;-54
2021/11/13 03:35:09;;;;;;;16.17;9.27;;;4.00;99.90;;;;;;5071333;28;20846;-55
2021/11/13 03:37:36;;;;;;;16.27;9.53;;;4.00;99.90;;;;;;5071152;28;20481;-54
2021/11/13 03:40:04;;;;;;;15.63;8.27;;;4.10;99.90;;;;;;5071039;28;20459;-54
2021/11/13 03:42:34;;;;;;;19.57;9.60;;;4.10;99.90;;;;;;5071759;28;20726;-54
2021/11/13 03:45:04;;;;;;;25.33;9.80;;;4.10;99.90;;;;;;5071780;28;20454;-55
2021/11/13 03:47:31;;;;;;;28.70;10.43;;;4.10;99.90;;;;;;5070933;28;20477;-55
2021/11/13 03:49:58;;;;;;;17.13;9.67;;;4.00;99.90;;;;;;5071608;28;20449;-53
2021/11/13 03:52:25;;;;;;;21.20;10.67;;;4.00;99.90;;;;;;5070588;28;20502;-55
2021/11/13 03:54:52;;;;;;;17.50;9.50;;;4.00;99.90;;;;;;5071073;28;20523;-54
2021/11/13 03:57:19;;;;;;;23.57;9.40;;;4.00;99.90;;;;;;5070590;28;20474;-54
2021/11/13 03:59:46;;;;;;;15.90;9.27;;;4.00;99.90;;;;;;5071626;28;21002;-54
2021/11/13 04:02:14;;;;;;;16.70;9.47;;;4.00;99.90;;;;;;5056585;28;20475;-55
2021/11/13 04:04:43;;;;;;;20.03;9.33;;;4.10;99.90;;;;;;5055822;28;20508;-54
2021/11/13 04:07:11;;;;;;;16.50;9.50;;;4.10;99.90;;;;;;5071235;28;20555;-54
2021/11/13 04:09:39;;;;;;;15.37;9.37;;;4.10;99.90;;;;;;5071110;28;20486;-54
2021/11/13 04:12:07;;;;;;;25.10;9.97;;;4.10;99.90;;;;;;5070839;28;20455;-54
2021/11/13 04:14:36;;;;;;;17.93;9.50;;;4.20;99.90;;;;;;5071502;28;20494;-54
2021/11/13 04:17:04;;;;;;;23.23;11.27;;;4.10;99.90;;;;;;5071491;28;20524;-55
2021/11/13 04:19:32;;;;;;;18.27;8.87;;;4.20;99.90;;;;;;5071728;28;20874;-54
2021/11/13 04:21:59;;;;;;;17.30;9.77;;;4.20;99.90;;;;;;5071162;28;20451;-54
2021/11/13 04:24:26;;;;;;;17.50;9.27;;;4.20;99.90;;;;;;5063093;28;20517;-53
2021/11/13 04:26:53;;;;;;;17.17;9.67;;;4.20;99.90;;;;;;5071750;28;20466;-54
2021/11/13 04:29:20;;;;;;;16.57;9.63;;;4.20;99.90;;;;;;5060806;28;20484;-54
2021/11/13 04:31:48;;;;;;;22.30;11.83;;;4.20;99.90;;;;;;5051207;28;20474;-54
2021/11/13 04:34:20;;;;;;;26.43;10.60;;;4.20;99.90;;;;;;5052034;28;20459;-53
2021/11/13 04:40:11;;;;;;;18.47;9.60;;;4.10;99.90;;;;;;5058847;28;20542;-54
2021/11/13 04:42:38;;;;;;;25.13;10.23;;;4.10;99.90;;;;;;5074124;28;20963;-54
2021/11/13 04:45:07;;;;;;;34.53;10.90;;;4.00;99.90;;;;;;5090368;28;20451;-54
2021/11/13 04:47:34;;;;;;;26.30;10.90;;;3.80;99.90;;;;;;5090735;28;20492;-55
2021/11/13 04:50:02;;;;;;;18.00;9.53;;;3.80;99.90;;;;;;5089754;28;20446;-54
2021/11/13 04:52:29;;;;;;;23.73;9.47;;;3.90;99.90;;;;;;5089978;28;20473;-54
2021/11/13 04:54:57;;;;;;;16.33;9.43;;;4.00;99.90;;;;;;5089396;28;20482;-54
2021/11/13 04:57:26;;;;;;;18.47;9.47;;;4.10;99.90;;;;;;5087071;28;20496;-55
2021/11/13 04:59:53;;;;;;;17.30;9.80;;;4.20;99.90;;;;;;5071064;28;20451;-54
2021/11/13 05:02:20;;;;;;;18.67;9.47;;;4.10;99.90;;;;;;5070228;28;20536;-54
2021/11/13 05:04:53;;;;;;;17.13;9.63;;;4.10;99.90;;;;;;5074558;28;20454;-53
2021/11/13 05:07:20;;;;;;;18.50;10.20;;;4.20;99.90;;;;;;5074480;28;20984;-55
2021/11/13 05:09:47;;;;;;;15.73;10.00;;;4.20;99.90;;;;;;5074631;28;20910;-54
2021/11/13 05:12:14;;;;;;;20.10;11.10;;;4.10;99.90;;;;;;5074167;28;20869;-55
2021/11/13 05:14:43;;;;;;;18.60;9.83;;;4.20;99.90;;;;;;5074210;28;20453;-54
2021/11/13 05:17:10;;;;;;;18.63;10.80;;;4.20;99.90;;;;;;5074011;28;20527;-55
2021/11/13 05:19:38;;;;;;;24.77;11.10;;;4.20;99.90;;;;;;5074450;28;20933;-54
2021/11/13 05:22:05;;;;;;;21.07;11.03;;;4.30;99.90;;;;;;5074303;28;20546;-54
2021/11/13 05:24:32;;;;;;;31.13;11.30;;;4.20;99.90;;;;;;5068316;28;20451;-53
2021/11/13 05:27:00;;;;;;;19.43;10.27;;;4.20;99.90;;;;;;5074069;28;20471;-54
2021/11/13 05:29:27;;;;;;;27.53;10.60;;;4.10;99.90;;;;;;5067387;28;20528;-55
2021/11/13 05:31:55;;;;;;;26.30;10.67;;;4.10;99.90;;;;;;5073581;28;20451;-54
2021/11/13 05:34:22;;;;;;;23.50;10.03;;;4.10;99.90;;;;;;5074191;28;20451;-55
2021/11/13 05:36:49;;;;;;;17.50;9.97;;;4.10;99.90;;;;;;5074178;28;20523;-54
2021/11/13 05:39:16;;;;;;;30.83;10.87;;;3.90;99.90;;;;;;5073327;28;20474;-54
2021/11/13 05:41:43;;;;;;;23.63;10.87;;;3.90;99.90;;;;;;5073744;28;20451;-54
2021/11/13 05:44:10;;;;;;;18.70;9.80;;;4.00;99.90;;;;;;5061134;28;20500;-54
2021/11/13 05:46:37;;;;;;;20.10;11.10;;;4.00;99.90;;;;;;5071910;28;20535;-54
2021/11/13 05:49:06;;;;;;;20.70;9.50;;;4.10;99.90;;;;;;5073855;28;20528;-55
2021/11/13 05:51:33;;;;;;;28.03;9.47;;;4.00;99.90;;;;;;5073564;28;20952;-55
2021/11/13 05:54:00;;;;;;;19.93;10.10;;;4.00;99.90;;;;;;5072896;28;20508;-54
2021/11/13 05:56:27;;;;;;;19.57;10.30;;;4.00;99.90;;;;;;5073613;28;21046;-55
2021/11/13 05:58:54;;;;;;;17.20;10.00;;;3.90;99.90;;;;;;5073184;28;20450;-54
2021/11/13 06:01:21;;;;;;;22.70;11.47;;;4.00;99.90;;;;;;5073184;28;20454;-55
2021/11/13 06:03:48;;;;;;;18.83;9.83;;;4.10;99.90;;;;;;5073480;28;20454;-55
2021/11/13 06:06:17;;;;;;;22.17;9.90;;;4.10;99.90;;;;;;5073509;28;20482;-54
2021/11/13 06:08:43;;;;;;;19.03;9.40;;;4.20;99.90;;;;;;5072904;28;20483;-55
2021/11/13 06:11:10;;;;;;;17.80;9.43;;;4.20;99.90;;;;;;5072433;28;20874;-54
2021/11/13 06:13:38;;;;;;;22.47;10.00;;;4.30;99.90;;;;;;5072940;28;20451;-55
2021/11/13 06:16:08;;;;;;;19.70;10.40;;;4.30;99.90;;;;;;5073407;28;20462;-55
2021/11/13 06:18:35;;;;;;;21.93;8.80;;;4.20;99.90;;;;;;5070958;28;20459;-55
2021/11/13 06:21:02;;;;;;;17.67;9.20;;;4.30;99.90;;;;;;5077122;28;20457;-54
2021/11/13 06:23:31;;;;;;;17.80;8.90;;;4.30;99.90;;;;;;5072489;28;20524;-55
2021/11/13 06:25:58;;;;;;;17.00;9.53;;;4.40;99.90;;;;;;5074392;28;20475;-55
2021/11/13 06:28:25;;;;;;;18.23;9.07;;;4.50;99.90;;;;;;5068304;28;21164;-54
2021/11/13 06:30:52;;;;;;;14.50;8.20;;;4.30;99.90;;;;;;5067463;28;20455;-55
2021/11/13 06:33:19;;;;;;;16.83;9.63;;;4.30;99.90;;;;;;5072525;28;20459;-55
2021/11/13 06:35:46;;;;;;;19.90;9.63;;;4.40;99.90;;;;;;5072333;28;20463;-54
2021/11/13 06:38:13;;;;;;;17.63;9.37;;;4.40;99.90;;;;;;5072410;28;20463;-54
2021/11/13 06:40:41;;;;;;;14.40;9.50;;;4.40;99.90;;;;;;5072169;28;20508;-54
2021/11/13 06:43:08;;;;;;;17.40;8.70;;;4.40;99.90;;;;;;5072813;28;20454;-55
2021/11/13 06:45:36;;;;;;;20.70;9.80;;;4.40;99.90;;;;;;5072574;28;20451;-54
2021/11/13 06:48:03;;;;;;;25.33;9.83;;;4.40;99.90;;;;;;5072201;28;20470;-55
2021/11/13 06:50:30;;;;;;;19.20;9.50;;;4.50;99.90;;;;;;5067551;28;20479;-55
2021/11/13 06:52:57;;;;;;;16.77;9.40;;;4.40;99.90;;;;;;5071730;28;20446;-54
2021/11/13 06:55:24;;;;;;;20.57;9.23;;;4.30;99.90;;;;;;5071569;28;20462;-55
2021/11/13 06:57:53;;;;;;;21.43;9.70;;;4.40;99.90;;;;;;5072174;28;20455;-54
2021/11/13 07:00:21;;;;;;;19.90;10.50;;;4.40;99.90;;;;;;5072203;28;20524;-54
2021/11/13 07:02:49;;;;;;;22.10;11.57;;;4.50;99.90;;;;;;5072001;28;20451;-54
2021/11/13 07:05:16;;;;;;;22.27;10.93;;;4.40;99.90;;;;;;5071132;28;20462;-54
2021/11/13 07:07:44;;;;;;;21.80;11.30;;;4.30;99.90;;;;;;5070040;28;20451;-54
2021/11/13 07:10:13;;;;;;;20.40;11.30;;;4.30;99.90;;;;;;5065837;28;20875;-55
2021/11/13 07:12:41;;;;;;;20.57;10.70;;;4.30;99.90;;;;;;5071228;28;20497;-54
2021/11/13 07:15:11;;;;;;;23.80;11.57;;;4.40;99.90;;;;;;5067846;28;20505;-54
2021/11/13 07:17:38;;;;;;;26.55;13.70;;;4.30;99.90;;;;;;5065916;28;21009;-54
2021/11/13 07:20:06;;;;;;;26.80;12.00;;;4.40;99.90;;;;;;5071678;28;20564;-54
2021/11/13 07:22:36;;;;;;;23.63;11.50;;;4.40;99.90;;;;;;5070654;28;20556;-53
2021/11/13 07:25:04;;;;;;;24.17;12.07;;;4.50;99.90;;;;;;5070145;28;20945;-54
2021/11/13 07:27:31;;;;;;;24.40;12.00;;;4.50;99.90;;;;;;5068078;28;20477;-55
2021/11/13 07:30:00;;;;;;;25.50;12.47;;;4.60;99.90;;;;;;5055920;28;21055;-53
2021/11/13 07:32:32;;;;;;;22.90;11.47;;;4.70;99.90;;;;;;5070217;28;21097;-55
2021/11/13 07:34:59;;;;;;;21.90;11.17;;;4.60;99.90;;;;;;5070247;28;20496;-54
2021/11/13 07:37:27;;;;;;;21.67;11.30;;;4.60;99.90;;;;;;5070634;28;20520;-54
2021/11/13 07:39:54;;;;;;;19.73;11.73;;;4.70;99.90;;;;;;5051776;28;20448;-53
2021/11/13 07:42:22;;;;;;;20.70;11.63;;;4.80;99.90;;;;;;5051494;28;20455;-54
2021/11/13 07:44:49;;;;;;;18.67;10.20;;;4.80;99.90;;;;;;5055061;28;20463;-55
2021/11/13 07:47:16;;;;;;;20.00;11.27;;;4.80;99.90;;;;;;5071222;28;20466;-54
2021/11/13 07:49:45;;;;;;;18.10;10.80;;;4.90;99.90;;;;;;5075174;28;20969;-54
2021/11/13 07:52:12;;;;;;;18.03;9.90;;;4.90;99.90;;;;;;5075155;28;20450;-54
2021/11/13 07:54:39;;;;;;;19.20;11.93;;;4.90;99.90;;;;;;5075322;28;20450;-54
2021/11/13 07:57:08;;;;;;;19.40;11.80;;;4.90;99.90;;;;;;5074113;28;20474;-54
2021/11/13 07:59:35;;;;;;;17.30;10.23;;;4.90;99.90;;;;;;5065937;28;20440;-54
2021/11/13 08:02:03;;;;;;;16.70;10.17;;;4.90;99.90;;;;;;5070806;28;20447;-55
2021/11/13 08:04:30;;;;;;;14.97;9.90;;;4.90;99.90;;;;;;5076071;28;20447;-54
2021/11/13 08:06:59;;;;;;;16.20;9.40;;;5.00;99.90;;;;;;5096553;22;20534;-50
2021/11/13 08:09:26;;;;;;;15.30;9.87;;;5.10;99.90;;;;;;5071056;28;20548;-51
2021/11/13 08:11:53;;;;;;;17.10;9.70;;;5.10;99.90;;;;;;5070905;28;20972;-50
2021/11/13 08:14:20;;;;;;;13.57;8.90;;;5.20;99.90;;;;;;5071243;28;20439;-50
2021/11/13 08:16:47;;;;;;;18.07;10.70;;;5.30;99.90;;;;;;5071137;28;21208;-50
2021/11/13 08:19:15;;;;;;;17.07;10.00;;;5.40;99.90;;;;;;5071661;28;20443;-50
2021/11/13 08:21:42;;;;;;;16.80;10.53;;;5.30;99.90;;;;;;5070667;28;20447;-51
2021/11/13 08:24:11;;;;;;;18.33;10.83;;;5.20;99.90;;;;;;5071323;28;20961;-50
2021/11/13 08:26:38;;;;;;;17.77;10.40;;;5.20;99.90;;;;;;5063863;28;20475;-50
2021/11/13 08:29:05;;;;;;;19.33;11.10;;;5.20;99.90;;;;;;5053097;28;20484;-50
2021/11/13 08:31:32;;;;;;;18.90;10.97;;;5.20;99.90;;;;;;5068041;28;20443;-50
2021/11/13 08:33:59;;;;;;;21.97;11.80;;;5.30;99.90;;;;;;5070815;28;20528;-50
2021/11/13 08:36:26;;;;;;;21.07;11.37;;;5.30;99.90;;;;;;5070690;28;20474;-50
2021/11/13 08:38:54;;;;;;;19.40;11.37;;;5.30;99.90;;;;;;5073317;28;20451;-51
2021/11/13 08:41:22;;;;;;;18.73;10.53;;;5.30;99.90;;;;;;5074264;28;20524;-50
2021/11/13 08:43:49;;;;;;;20.50;11.80;;;5.40;99.90;;;;;;5075161;28;20450;-51
2021/11/13 08:46:17;;;;;;;23.77;12.47;;;5.40;99.90;;;;;;5063059;28;20533;-51
2021/11/13 08:48:45;;;;;;;22.60;11.37;;;5.40;99.90;;;;;;5074443;28;20505;-50
2021/11/13 08:51:12;;;;;;;16.63;9.90;;;5.40;99.90;;;;;;5074140;28;20547;-51
2021/11/13 08:53:39;;;;;;;16.97;10.20;;;5.50;99.90;;;;;;5073845;28;20509;-50
2021/11/13 08:56:07;;;;;;;15.30;9.33;;;5.60;99.90;;;;;;5062156;28;20476;-50
2021/11/13 08:58:36;;;;;;;18.90;10.90;;;5.80;99.90;;;;;;5061731;28;20450;-49
2021/11/13 09:01:06;;;;;;;20.80;11.20;;;5.90;99.90;;;;;;5072733;28;20512;-50
2021/11/13 09:03:36;;;;;;;21.10;12.97;;;5.90;99.90;;;;;;5073952;28;20514;-51
2021/11/13 09:06:06;;;;;;;19.00;12.30;;;5.90;99.90;;;;;;5074169;28;20469;-51
2021/11/13 09:08:33;;;;;;;18.20;10.40;;;6.00;99.90;;;;;;5061095;28;20451;-51
2021/11/13 09:11:00;;;;;;;18.80;11.30;;;6.10;99.90;;;;;;5062160;28;20480;-50
2021/11/13 09:13:29;;;;;;;19.57;11.40;;;6.20;99.90;;;;;;5073997;28;20500;-49
2021/11/13 09:16:00;;;;;;;18.37;11.93;;;6.40;99.90;;;;;;5074393;28;20464;-50
2021/11/13 09:18:27;;;;;;;16.00;10.60;;;6.40;99.90;;;;;;5072640;28;20513;-50
2021/11/13 09:20:54;;;;;;;16.53;10.30;;;6.50;99.90;;;;;;5068341;28;20449;-50
2021/11/13 09:23:21;;;;;;;15.37;9.67;;;6.50;99.90;;;;;;5074129;28;20447;-51
2021/11/13 09:25:48;;;;;;;15.40;9.93;;;6.50;99.90;;;;;;5069294;28;20448;-49
2021/11/13 09:28:16;;;;;;;16.77;10.60;;;6.50;99.90;;;;;;5055649;28;20455;-50
2021/11/13 09:30:43;;;;;;;16.37;9.90;;;6.40;99.90;;;;;;5073366;28;20482;-51
2021/11/13 09:33:13;;;;;;;17.33;10.30;;;6.40;99.90;;;;;;5074016;28;20450;-50
2021/11/13 09:35:41;;;;;;;16.77;10.47;;;6.20;99.90;;;;;;5073727;28;20486;-51
2021/11/13 09:38:09;;;;;;;17.83;10.70;;;6.20;99.90;;;;;;5068161;28;20501;-50
2021/11/13 09:40:37;;;;;;;15.13;10.17;;;6.20;99.90;;;;;;5065385;28;20470;-50
2021/11/13 09:43:06;;;;;;;16.70;10.73;;;6.20;99.90;;;;;;5073515;28;20442;-51
2021/11/13 09:45:34;;;;;;;13.87;9.10;;;6.20;99.90;;;;;;5070575;28;20485;-51
2021/11/13 09:48:03;;;;;;;13.73;9.07;;;6.30;99.90;;;;;;5073519;28;20468;-50
2021/11/13 09:50:34;;;;;;;14.73;8.93;;;6.30;99.90;;;;;;5072619;28;20898;-50
2021/11/13 09:53:03;;;;;;;16.70;9.30;;;6.30;99.90;;;;;;5053852;28;20443;-51
2021/11/13 09:55:30;;;;;;;16.23;10.10;;;6.30;99.90;;;;;;5060389;28;20447;-50
2021/11/13 09:57:57;;;;;;;18.63;10.83;;;6.30;99.90;;;;;;5073519;28;20474;-50
2021/11/13 10:00:28;;;;;;;13.13;8.67;;;6.30;99.90;;;;;;5073187;28;20444;-51
2021/11/13 10:02:56;;;;;;;13.90;9.00;;;6.30;99.90;;;;;;5073846;28;20452;-50
2021/11/13 10:05:24;;;;;;;20.73;9.63;;;6.30;99.90;;;;;;5073382;28;20451;-50
2021/11/13 10:07:52;;;;;;;13.83;8.60;;;6.20;99.90;;;;;;5064253;28;20476;-50
2021/11/13 10:10:29;;;;;;;14.00;9.60;;;6.10;99.90;;;;;;5052988;28;21082;-51
2021/11/13 10:12:56;;;;;;;16.23;10.33;;;6.10;99.90;;;;;;5053218;28;20542;-50
2021/11/13 10:15:35;;;;;;;17.70;10.77;;;6.10;99.90;;;;;;5056796;28;20455;-49
2021/11/13 10:18:08;;;;;;;15.63;10.17;;;6.10;99.90;;;;;;5061973;28;20473;-50
2021/11/13 10:20:36;;;;;;;16.30;10.43;;;6.10;99.90;;;;;;5072966;28;20467;-50
2021/11/13 10:23:05;;;;;;;16.67;10.53;;;6.00;99.90;;;;;;5073053;28;20504;-50
2021/11/13 10:25:33;;;;;;;15.43;10.77;;;6.00;99.90;;;;;;5072915;28;20504;-51
2021/11/13 10:28:12;;;;;;;21.07;11.90;;;6.00;99.90;;;;;;5072672;28;20475;-50
2021/11/13 10:30:40;;;;;;;17.80;11.33;;;6.00;99.90;;;;;;5052793;28;20491;-50
2021/11/13 10:33:08;;;;;;;16.03;10.53;;;6.20;99.90;;;;;;5065882;28;20455;-50
2021/11/13 10:35:46;;;;;;;15.80;9.37;;;6.20;99.90;;;;;;5072886;28;20442;-50
2021/11/13 10:38:20;;;;;;;18.03;10.37;;;6.00;99.90;;;;;;5072971;28;20448;-51
2021/11/13 10:40:52;;;;;;;17.38;10.35;;;5.90;99.90;;;;;;5072045;28;20457;-50
2021/11/13 10:43:21;;;;;;;16.00;9.93;;;6.10;99.90;;;;;;5059991;28;20196;-49
2021/11/13 10:45:59;;;;;;;13.67;9.40;;;5.90;99.90;;;;;;5069429;28;20455;-50
2021/11/13 10:48:26;;;;;;;13.60;9.17;;;5.90;99.90;;;;;;5069414;28;20471;-50
2021/11/13 10:51:02;;;;;;;14.00;9.47;;;5.90;99.90;;;;;;5070361;28;20490;-49
2021/11/13 10:53:32;;;;;;;16.67;10.67;;;5.80;99.90;;;;;;5071278;28;20452;-50
2021/11/13 10:56:10;;;;;;;16.27;10.57;;;5.80;99.90;;;;;;5071984;28;20541;-49
2021/11/13 10:58:40;;;;;;;20.57;11.07;;;5.90;99.90;;;;;;5071584;28;20502;-49
2021/11/13 11:01:09;;;;;;;23.30;12.43;;;5.80;99.90;;;;;;5070495;28;20447;-52
2021/11/13 11:03:40;;;;;;;20.23;12.23;;;5.90;99.90;;;;;;5072240;28;20502;-48
2021/11/13 11:06:08;;;;;;;21.27;13.73;;;5.90;99.90;;;;;;5071907;28;20482;-51
2021/11/13 11:08:38;;;;;;;17.70;11.50;;;5.80;99.90;;;;;;5071916;28;20473;-51
2021/11/13 11:11:25;;;;;;;15.87;11.00;;;5.80;99.90;;;;;;5071505;28;20991;-51
2021/11/13 11:13:54;;;;;;;20.07;11.50;;;5.80;99.90;;;;;;5071267;28;20504;-48
2021/11/13 11:16:23;;;;;;;17.63;11.47;;;5.80;99.90;;;;;;5071274;28;20475;-50
2021/11/13 11:18:58;;;;;;;19.60;11.80;;;5.80;99.90;;;;;;5071049;28;20581;-50
2021/11/13 11:21:42;;;;;;;21.57;13.50;;;5.80;99.90;;;;;;5071292;28;20450;-50
2021/11/13 11:24:14;;;;;;;16.77;11.40;;;5.80;99.90;;;;;;5068085;28;20944;-51
2021/11/13 11:26:42;;;;;;;19.70;11.90;;;5.90;99.90;;;;;;5065303;28;20467;-50
2021/11/13 11:29:10;;;;;;;21.37;12.23;;;5.70;99.90;;;;;;5058896;28;20443;-49
2021/11/13 11:31:46;;;;;;;19.67;12.07;;;5.70;99.90;;;;;;5051366;28;20485;-50
2021/11/13 11:34:25;;;;;;;19.47;12.33;;;5.70;99.90;;;;;;5070259;28;20443;-50
2021/11/13 11:36:54;;;;;;;19.17;11.90;;;5.70;99.90;;;;;;5071030;28;20474;-50
2021/11/13 11:39:23;;;;;;;17.87;11.37;;;5.80;99.90;;;;;;5071232;28;20455;-50
2021/11/13 11:41:50;;;;;;;19.63;11.60;;;5.80;99.90;;;;;;5071401;28;20446;-51
2021/11/13 11:44:18;;;;;;;16.60;11.87;;;5.80;99.90;;;;;;5069351;28;20458;-49
2021/11/13 11:46:46;;;;;;;17.93;10.90;;;5.80;99.90;;;;;;5068408;28;21052;-50
2021/11/13 11:49:14;;;;;;;20.97;12.33;;;5.80;99.90;;;;;;5071587;28;20453;-50
2021/11/13 11:51:42;;;;;;;21.63;12.63;;;5.90;99.90;;;;;;5071116;28;20487;-50
2021/11/13 11:54:09;;;;;;;21.40;13.97;;;5.90;99.90;;;;;;5071118;28;20964;-50
2021/11/13 11:56:38;;;;;;;19.17;12.50;;;6.00;99.90;;;;;;5069913;28;20469;-51
2021/11/13 11:59:06;;;;;;;19.10;13.00;;;5.90;99.90;;;;;;5066248;28;20984;-51
2021/11/13 12:01:35;;;;;;;23.17;13.50;;;5.90;99.90;;;;;;5068833;28;20435;-50
2021/11/13 12:04:17;;;;;;;21.63;14.40;;;5.90;99.90;;;;;;5069895;28;20457;-50
2021/11/13 12:06:51;;;;;;;21.97;14.20;;;6.10;99.90;;;;;;5064150;28;20559;-50
2021/11/13 12:09:19;;;;;;;25.30;14.37;;;6.00;99.90;;;;;;5063041;28;20555;-52
2021/11/13 12:11:48;;;;;;;20.40;13.50;;;5.90;99.90;;;;;;5067773;28;20867;-50
2021/11/13 12:14:31;;;;;;;24.37;15.53;;;5.80;99.90;;;;;;5073867;28;20451;-51
2021/11/13 12:17:24;;;;;;;23.23;15.27;;;5.90;99.90;;;;;;5073387;28;20493;-51
2021/11/13 12:20:30;;;;;;;22.30;13.87;;;5.80;99.90;;;;;;5066861;28;20462;-51
2021/11/13 12:23:11;;;;;;;16.50;11.73;;;5.90;99.90;;;;;;5071837;28;20486;-53
2021/11/13 12:25:41;;;;;;;23.40;13.50;;;5.90;99.90;;;;;;5073925;28;20491;-50
2021/11/13 12:28:21;;;;;;;25.57;15.60;;;6.00;99.90;;;;;;5068853;28;20822;-50
2021/11/13 12:31:08;;;;;;;22.57;14.60;;;5.90;99.90;;;;;;5065867;28;20488;-49
2021/11/13 12:33:55;;;;;;;30.53;17.10;;;5.90;99.90;;;;;;5073393;28;20898;-51
2021/11/13 12:36:28;;;;;;;22.67;14.80;;;5.90;99.90;;;;;;5073797;28;20533;-51
2021/11/13 12:39:07;;;;;;;21.50;13.37;;;6.00;99.90;;;;;;5073780;28;20456;-50
2021/11/13 12:42:03;;;;;;;23.30;13.70;;;6.20;99.90;;;;;;5074800;28;20440;-50
2021/11/13 12:44:35;;;;;;;25.33;15.70;;;5.90;99.90;;;;;;5054529;28;20468;-50
2021/11/13 12:47:17;;;;;;;23.57;15.00;;;5.90;99.90;;;;;;5073732;28;20525;-50
2021/11/13 12:49:53;;;;;;;26.77;16.87;;;5.90;99.90;;;;;;5073408;28;20454;-49
2021/11/13 12:52:28;;;;;;;26.50;16.23;;;5.70;99.90;;;;;;5074243;28;20485;-52
2021/11/13 12:55:14;;;;;;;25.40;14.80;;;5.80;99.90;;;;;;5073338;28;20462;-50